Time;durP1;ratioP1;P1;durP2;ratioP2;P2;SDS_P1;SDS_P2;PMS_P1;PMS_P2;Temp;Humidity;BMP_temperature;BMP_pressure;BME280_temperature;BME280_humidity;BME280_pressure;Samples;Min_cycle;Max_cycle;Signal;HPM_P1;HPM_P2
2023/03/04 00:00:56;;;;;;;54.28;28.08;;;2.10;99.90;;;;;;4992144;28;20038;-51
2023/03/04 00:03:22;;;;;;;54.42;26.67;;;2.10;99.90;;;;;;4992683;28;20406;-58
2023/03/04 00:05:48;;;;;;;54.28;26.40;;;2.10;99.90;;;;;;4992172;28;20591;-58
2023/03/04 00:08:13;;;;;;;61.22;29.58;;;2.10;99.90;;;;;;4991834;28;20183;-58
2023/03/04 00:10:39;;;;;;;57.75;28.25;;;2.00;99.90;;;;;;4991523;28;20030;-54
2023/03/04 00:13:04;;;;;;;56.63;27.75;;;2.00;99.90;;;;;;4991886;28;20030;-57
2023/03/04 00:15:30;;;;;;;57.10;27.48;;;2.00;99.90;;;;;;4992355;28;20323;-60
2023/03/04 00:17:55;;;;;;;55.08;28.45;;;2.10;99.90;;;;;;4986642;28;20046;-53
2023/03/04 00:20:21;;;;;;;61.50;28.75;;;2.00;99.90;;;;;;4972956;28;20030;-57
2023/03/04 00:22:46;;;;;;;60.47;30.08;;;2.00;99.90;;;;;;4981889;28;20031;-55
2023/03/04 00:25:12;;;;;;;58.58;27.98;;;2.00;99.90;;;;;;4989941;28;20816;-55
2023/03/04 00:27:37;;;;;;;65.65;30.80;;;1.90;99.90;;;;;;4991039;28;20542;-55
2023/03/04 00:30:05;;;;;;;66.07;29.70;;;2.00;99.90;;;;;;4975515;28;20086;-57
2023/03/04 00:32:30;;;;;;;63.15;30.52;;;1.90;99.90;;;;;;4972932;28;20752;-56
2023/03/04 00:34:57;;;;;;;64.13;28.42;;;1.90;99.90;;;;;;4973274;28;20061;-59
2023/03/04 00:37:22;;;;;;;61.70;30.27;;;1.90;99.90;;;;;;4973059;28;20039;-54
2023/03/04 00:39:48;;;;;;;71.57;30.90;;;1.90;99.90;;;;;;4973052;28;20034;-53
2023/03/04 00:42:13;;;;;;;71.50;29.05;;;1.90;99.90;;;;;;4973132;28;20058;-55
2023/03/04 00:44:39;;;;;;;67.00;31.38;;;1.80;99.90;;;;;;4995599;23;20515;-51
2023/03/04 00:47:04;;;;;;;68.63;30.75;;;1.80;99.90;;;;;;4974194;28;20106;-49
2023/03/04 00:49:30;;;;;;;67.47;29.15;;;1.90;99.90;;;;;;4974158;28;20419;-50
2023/03/04 00:51:55;;;;;;;60.28;28.20;;;1.80;99.90;;;;;;4975214;28;20027;-52
2023/03/04 00:54:21;;;;;;;69.30;31.10;;;1.80;99.90;;;;;;4975313;28;20035;-48
2023/03/04 00:56:47;;;;;;;66.68;31.02;;;1.70;99.90;;;;;;4975165;28;20106;-49
2023/03/04 00:59:12;;;;;;;59.55;29.02;;;1.80;99.90;;;;;;4974083;28;20442;-49
2023/03/04 01:01:38;;;;;;;64.45;29.50;;;1.80;99.90;;;;;;4975200;28;20435;-53
2023/03/04 01:04:03;;;;;;;64.05;29.05;;;2.30;99.90;;;;;;4975148;28;20031;-50
2023/03/04 01:06:29;;;;;;;61.28;30.02;;;1.70;99.90;;;;;;4975228;28;20027;-52
2023/03/04 01:08:55;;;;;;;64.72;29.83;;;1.70;99.90;;;;;;4973757;28;20027;-50
2023/03/04 01:11:20;;;;;;;67.90;29.52;;;1.70;99.90;;;;;;4974953;28;20030;-51
2023/03/04 01:13:47;;;;;;;57.60;28.25;;;1.70;99.90;;;;;;4974966;28;20023;-55
2023/03/04 01:16:12;;;;;;;94.22;44.20;;;1.70;99.90;;;;;;4974855;28;20027;-51
2023/03/04 01:18:38;;;;;;;69.05;32.13;;;1.60;99.90;;;;;;4974776;28;20383;-48
2023/03/04 01:21:04;;;;;;;74.80;32.20;;;1.60;99.90;;;;;;4973607;28;20049;-52
2023/03/04 01:23:30;;;;;;;76.47;31.10;;;1.60;99.90;;;;;;4975020;28;20065;-54
2023/03/04 01:25:56;;;;;;;73.30;29.73;;;;;;;;;;4974593;28;20055;-50
2023/03/04 01:28:22;;;;;;;70.72;28.60;;;1.60;99.90;;;;;;4974666;28;20046;-51
2023/03/04 01:30:47;;;;;;;64.63;29.33;;;1.60;99.90;;;;;;4973253;28;20033;-47
2023/03/04 01:33:13;;;;;;;77.40;30.80;;;1.60;99.90;;;;;;4974585;28;20480;-55
2023/03/04 01:35:38;;;;;;;69.68;29.10;;;1.60;99.90;;;;;;4973269;28;20494;-49
2023/03/04 01:38:04;;;;;;;71.22;27.80;;;1.60;99.90;;;;;;4974536;28;20015;-52
2023/03/04 01:40:30;;;;;;;58.03;27.90;;;1.70;99.90;;;;;;4974901;28;20034;-52
2023/03/04 01:42:55;;;;;;;68.50;29.20;;;1.60;99.90;;;;;;4973675;28;20058;-50
2023/03/04 01:45:21;;;;;;;64.07;29.88;;;1.70;99.90;;;;;;4974183;28;20138;-52
2023/03/04 01:47:48;;;;;;;63.53;28.60;;;1.70;99.90;;;;;;4974460;28;20104;-51
2023/03/04 01:50:30;;;;;;;67.45;30.35;;;1.60;99.90;;;;;;4974181;28;20030;-52
2023/03/04 01:52:56;;;;;;;60.15;28.83;;;1.50;99.90;;;;;;4974261;28;20486;-51
2023/03/04 01:55:22;;;;;;;67.07;28.02;;;1.50;99.90;;;;;;4973911;28;20042;-56
2023/03/04 01:57:49;;;;;;;59.00;27.58;;;1.40;99.90;;;;;;4973897;28;20398;-50
2023/03/04 02:00:22;;;;;;;72.68;31.10;;;1.30;99.90;;;;;;4972579;28;20030;-51
2023/03/04 02:02:51;;;;;;;67.28;30.42;;;1.20;99.90;;;;;;4972667;28;20426;-50
2023/03/04 02:05:17;;;;;;;73.18;31.83;;;1.10;99.90;;;;;;4973968;28;20067;-48
2023/03/04 02:07:43;;;;;;;66.25;31.17;;;1.10;99.90;;;;;;4972642;28;20054;-52
2023/03/04 02:10:10;;;;;;;76.32;31.95;;;1.10;99.90;;;;;;4972748;28;20054;-48
2023/03/04 02:12:36;;;;;;;72.50;31.73;;;1.00;99.90;;;;;;4974047;28;20035;-48
2023/03/04 02:15:02;;;;;;;75.70;32.72;;;1.00;99.90;;;;;;4973617;28;20535;-48
2023/03/04 02:17:28;;;;;;;78.88;31.67;;;1.00;99.90;;;;;;4973316;28;20475;-50
2023/03/04 02:20:21;;;;;;;64.25;29.73;;;0.90;99.90;;;;;;4973582;28;20115;-49
2023/03/04 02:22:59;;;;;;;64.75;30.15;;;0.80;99.90;;;;;;4973702;28;20042;-50
2023/03/04 02:25:32;;;;;;;72.65;29.98;;;0.70;99.90;;;;;;4973943;28;20085;-52
2023/03/04 02:27:57;;;;;;;71.47;29.85;;;0.70;99.90;;;;;;4973343;28;20479;-50
2023/03/04 02:30:26;;;;;;;72.22;30.17;;;0.70;99.90;;;;;;4973425;28;20037;-52
2023/03/04 02:32:53;;;;;;;81.15;34.33;;;0.70;99.90;;;;;;4973401;28;20029;-51
2023/03/04 02:35:20;;;;;;;71.55;29.92;;;0.70;99.90;;;;;;4973115;28;20106;-49
2023/03/04 02:37:45;;;;;;;65.90;28.75;;;0.70;99.90;;;;;;4973434;28;20542;-51
2023/03/04 02:40:21;;;;;;;68.18;29.13;;;0.70;99.90;;;;;;4973462;28;20121;-48
2023/03/04 02:42:46;;;;;;;55.47;25.88;;;0.70;99.90;;;;;;4973468;28;20027;-53
2023/03/04 02:45:35;;;;;;;58.55;26.88;;;0.60;99.90;;;;;;4971444;28;20105;-51
2023/03/04 02:48:01;;;;;;;72.32;30.02;;;0.70;99.90;;;;;;4972974;28;20062;-49
2023/03/04 02:50:30;;;;;;;61.28;27.88;;;0.70;99.90;;;;;;4973187;28;20085;-51
2023/03/04 02:52:55;;;;;;;75.97;29.83;;;0.60;99.90;;;;;;4972857;28;20035;-51
2023/03/04 02:55:21;;;;;;;63.42;27.23;;;0.70;99.90;;;;;;4972959;28;20035;-49
2023/03/04 02:57:46;;;;;;;75.63;31.48;;;0.70;99.90;;;;;;4973017;28;20023;-48
2023/03/04 03:00:12;;;;;;;74.47;30.13;;;0.50;99.90;;;;;;4971714;28;20154;-52
2023/03/04 03:02:38;;;;;;;68.88;29.35;;;0.50;99.90;;;;;;4972730;28;20105;-50
2023/03/04 03:05:04;;;;;;;74.15;29.13;;;0.40;99.90;;;;;;4972936;28;20663;-48
2023/03/04 03:07:29;;;;;;;64.80;27.38;;;;;;;;;;4972891;28;20514;-50
2023/03/04 03:09:55;;;;;;;70.45;29.52;;;0.30;99.90;;;;;;4973015;28;20031;-53
2023/03/04 03:12:20;;;;;;;68.45;29.80;;;0.30;99.90;;;;;;4972555;28;20034;-51
2023/03/04 03:14:46;;;;;;;62.00;27.85;;;0.20;99.90;;;;;;4972490;28;20372;-49
2023/03/04 03:17:11;;;;;;;62.80;28.60;;;0.20;99.90;;;;;;4972359;28;20090;-49
2023/03/04 03:19:37;;;;;;;68.93;28.92;;;0.20;99.90;;;;;;4972457;28;20027;-51
2023/03/04 03:22:02;;;;;;;66.47;28.45;;;0.20;99.90;;;;;;4972583;28;20022;-50
2023/03/04 03:24:28;;;;;;;64.35;26.52;;;0.20;99.90;;;;;;4972624;28;20032;-51
2023/03/04 03:26:53;;;;;;;60.50;28.45;;;0.10;99.90;;;;;;4971126;28;20066;-49
2023/03/04 03:29:19;;;;;;;65.72;27.35;;;0.20;99.90;;;;;;4972788;28;20102;-52
2023/03/04 03:31:44;;;;;;;61.72;26.83;;;0.20;99.90;;;;;;4972508;28;20027;-49
2023/03/04 03:34:10;;;;;;;62.40;28.65;;;0.20;99.90;;;;;;4972516;28;20050;-48
2023/03/04 03:36:35;;;;;;;70.97;30.90;;;0.30;99.90;;;;;;4972316;28;20086;-53
2023/03/04 03:39:01;;;;;;;71.90;31.90;;;0.40;99.90;;;;;;4972460;28;20039;-49
2023/03/04 03:41:26;;;;;;;69.35;29.65;;;0.40;99.90;;;;;;4972360;28;20528;-51
2023/03/04 03:43:52;;;;;;;56.67;28.02;;;0.50;99.90;;;;;;4970438;28;20031;-48
2023/03/04 03:46:17;;;;;;;60.38;27.98;;;0.50;99.90;;;;;;4972221;28;20490;-50
2023/03/04 03:48:43;;;;;;;65.97;27.25;;;0.50;99.90;;;;;;4972159;28;20066;-50
2023/03/04 03:51:09;;;;;;;64.47;26.27;;;0.50;99.90;;;;;;4971036;28;20495;-49
2023/03/04 03:53:35;;;;;;;61.47;24.90;;;0.50;99.90;;;;;;4972518;28;20084;-51
2023/03/04 03:56:00;;;;;;;65.90;27.95;;;0.60;99.90;;;;;;4970955;28;20118;-54
2023/03/04 03:58:25;;;;;;;70.03;30.02;;;0.60;99.90;;;;;;4970923;28;20605;-51
2023/03/04 04:00:51;;;;;;;61.67;28.52;;;0.80;99.90;;;;;;4970872;28;20041;-51
2023/03/04 04:03:17;;;;;;;64.70;28.17;;;0.70;99.90;;;;;;4970702;28;20376;-51
2023/03/04 04:05:43;;;;;;;62.15;28.23;;;0.70;99.90;;;;;;4973556;28;20042;-50
2023/03/04 04:08:13;;;;;;;63.65;28.10;;;0.60;99.90;;;;;;4975767;28;20023;-54
2023/03/04 04:10:39;;;;;;;60.83;27.98;;;0.60;99.90;;;;;;4975764;28;20223;-47
2023/03/04 04:13:04;;;;;;;59.50;27.02;;;0.70;99.90;;;;;;4974485;28;20037;-50
2023/03/04 04:15:30;;;;;;;62.72;27.80;;;0.70;99.90;;;;;;4975394;28;20035;-49
2023/03/04 04:17:55;;;;;;;69.22;28.60;;;0.80;99.90;;;;;;4975356;28;20023;-50
2023/03/04 04:20:22;;;;;;;72.00;31.33;;;0.80;99.90;;;;;;4975619;28;20383;-49
2023/03/04 04:22:47;;;;;;;69.60;28.95;;;0.90;99.90;;;;;;4974303;28;20023;-49
2023/03/04 04:25:13;;;;;;;60.20;26.58;;;0.80;99.90;;;;;;4975337;28;20456;-49
2023/03/04 04:27:38;;;;;;;51.10;23.33;;;0.80;99.90;;;;;;4975348;28;20038;-47
2023/03/04 04:30:05;;;;;;;50.88;23.40;;;0.80;99.90;;;;;;4974263;28;20026;-48
2023/03/04 04:32:30;;;;;;;53.45;23.23;;;0.70;99.90;;;;;;4975334;28;20113;-49
2023/03/04 04:34:56;;;;;;;56.03;26.58;;;0.70;99.90;;;;;;4975162;28;20567;-54
2023/03/04 04:37:21;;;;;;;53.22;23.50;;;0.70;99.90;;;;;;4974020;28;20517;-49
2023/03/04 04:39:47;;;;;;;64.65;28.83;;;0.70;99.90;;;;;;4975471;28;20019;-49
2023/03/04 04:42:12;;;;;;;65.50;29.95;;;0.70;99.90;;;;;;4975200;28;20113;-49
2023/03/04 04:44:38;;;;;;;62.78;27.92;;;0.80;99.90;;;;;;4974819;28;20035;-54
2023/03/04 04:47:08;;;;;;;67.90;30.55;;;0.80;99.90;;;;;;4973582;28;20030;-47
2023/03/04 04:49:33;;;;;;;70.53;29.42;;;0.80;99.90;;;;;;4975264;28;20023;-54
2023/03/04 04:51:59;;;;;;;65.72;28.88;;;1.00;99.90;;;;;;4973784;28;20030;-52
2023/03/04 04:54:24;;;;;;;80.40;30.83;;;0.90;99.90;;;;;;4975031;28;20027;-54
2023/03/04 04:56:50;;;;;;;67.60;28.83;;;0.90;99.90;;;;;;4974899;28;20438;-50
2023/03/04 04:59:15;;;;;;;68.10;31.25;;;0.90;99.90;;;;;;4974850;28;20546;-49
2023/03/04 05:01:41;;;;;;;73.63;31.60;;;0.80;99.90;;;;;;4974978;28;20037;-54
2023/03/04 05:04:06;;;;;;;68.72;29.90;;;0.70;99.90;;;;;;4974790;28;20054;-48
2023/03/04 05:06:32;;;;;;;67.63;29.38;;;0.80;99.90;;;;;;4973487;28;20528;-50
2023/03/04 05:08:57;;;;;;;67.07;28.95;;;0.70;99.90;;;;;;4974675;28;20026;-50
2023/03/04 05:11:23;;;;;;;70.32;29.75;;;0.80;99.90;;;;;;4973451;28;20518;-53
2023/03/04 05:13:48;;;;;;;75.03;32.33;;;0.80;99.90;;;;;;4974603;28;20038;-51
2023/03/04 05:16:15;;;;;;;75.60;32.30;;;0.70;99.90;;;;;;4973167;28;20050;-48
2023/03/04 05:18:41;;;;;;;73.82;31.10;;;0.60;99.90;;;;;;4974825;28;20380;-48
2023/03/04 05:21:06;;;;;;;77.55;30.83;;;0.60;99.90;;;;;;4974455;28;20030;-49
2023/03/04 05:23:36;;;;;;;78.57;32.35;;;0.70;99.90;;;;;;4974597;28;20059;-47
2023/03/04 05:26:03;;;;;;;80.35;33.30;;;0.80;99.90;;;;;;4974468;28;20035;-47
2023/03/04 05:28:29;;;;;;;76.35;32.38;;;0.80;99.90;;;;;;4974475;28;20034;-48
2023/03/04 05:30:54;;;;;;;71.72;34.17;;;0.80;99.90;;;;;;4974511;28;20541;-48
2023/03/04 05:33:20;;;;;;;79.88;31.88;;;0.80;99.90;;;;;;4974291;28;20023;-49
2023/03/04 05:35:47;;;;;;;83.45;33.40;;;0.90;99.90;;;;;;4974241;28;20474;-49
2023/03/04 05:38:15;;;;;;;78.80;33.97;;;0.80;99.90;;;;;;4974771;28;20030;-50
2023/03/04 05:40:41;;;;;;;78.07;34.25;;;0.90;99.90;;;;;;4973400;28;20154;-49
2023/03/04 05:43:07;;;;;;;76.75;31.63;;;0.90;99.90;;;;;;4974130;28;20527;-49
2023/03/04 05:45:33;;;;;;;84.20;34.45;;;0.80;99.90;;;;;;4973653;28;20042;-51
2023/03/04 05:47:59;;;;;;;86.43;32.38;;;0.80;99.90;;;;;;4973804;28;20023;-48
2023/03/04 05:50:24;;;;;;;75.07;31.23;;;0.80;99.90;;;;;;4974037;28;20019;-52
2023/03/04 05:52:50;;;;;;;78.03;32.97;;;0.80;99.90;;;;;;4973934;28;20479;-47
2023/03/04 05:55:16;;;;;;;86.68;33.15;;;0.90;99.90;;;;;;4972387;28;20019;-49
2023/03/04 05:57:42;;;;;;;74.68;31.88;;;0.90;99.90;;;;;;4972303;28;20031;-48
2023/03/04 06:00:09;;;;;;;79.93;31.05;;;0.90;99.90;;;;;;4973775;28;20428;-50
2023/03/04 06:02:36;;;;;;;74.60;32.38;;;1.00;99.90;;;;;;4972242;28;20078;-48
2023/03/04 06:05:01;;;;;;;81.28;32.97;;;1.00;99.90;;;;;;4972269;28;20086;-50
2023/03/04 06:07:27;;;;;;;80.53;32.90;;;1.10;99.90;;;;;;4973790;28;20479;-53
2023/03/04 06:09:53;;;;;;;74.18;33.55;;;1.10;99.90;;;;;;4972433;28;20038;-48
2023/03/04 06:12:18;;;;;;;78.45;32.40;;;1.20;99.90;;;;;;4972219;28;20023;-50
2023/03/04 06:14:43;;;;;;;75.85;34.25;;;1.20;99.90;;;;;;4973147;28;20475;-50
2023/03/04 06:17:09;;;;;;;72.07;32.75;;;1.40;99.90;;;;;;4973032;28;20019;-48
2023/03/04 06:19:36;;;;;;;72.53;31.83;;;1.50;99.90;;;;;;4973346;28;20577;-52
2023/03/04 06:22:02;;;;;;;65.55;32.60;;;1.50;99.90;;;;;;4973392;28;20019;-51
2023/03/04 06:24:28;;;;;;;67.85;30.48;;;1.50;99.90;;;;;;4973241;28;20023;-52
2023/03/04 06:26:53;;;;;;;79.53;34.63;;;1.60;99.90;;;;;;4973059;28;20026;-51
2023/03/04 06:29:19;;;;;;;70.72;32.28;;;1.50;99.90;;;;;;4972928;28;20498;-48
2023/03/04 06:31:44;;;;;;;71.13;30.33;;;1.50;99.90;;;;;;4973603;28;20450;-51
2023/03/04 06:34:10;;;;;;;70.57;31.35;;;1.40;99.90;;;;;;4973130;28;20105;-51
2023/03/04 06:36:36;;;;;;;75.13;32.47;;;1.40;99.90;;;;;;4971742;28;20023;-49
2023/03/04 06:39:06;;;;;;;70.95;34.05;;;1.40;99.90;;;;;;4972935;28;20023;-48
2023/03/04 06:41:32;;;;;;;76.50;33.72;;;;;;;;;;4972035;28;20027;-51
2023/03/04 06:43:58;;;;;;;74.82;33.72;;;1.40;99.90;;;;;;4972980;28;20125;-50
2023/03/04 06:46:23;;;;;;;71.85;32.08;;;1.40;99.90;;;;;;4971799;28;20495;-51
2023/03/04 06:48:49;;;;;;;81.78;32.35;;;1.50;99.90;;;;;;4972830;28;20026;-51
2023/03/04 06:51:15;;;;;;;86.90;33.20;;;1.60;99.90;;;;;;4973150;28;20049;-51
2023/03/04 06:53:41;;;;;;;80.35;32.47;;;1.60;99.90;;;;;;4971569;28;20089;-55
2023/03/04 06:56:08;;;;;;;75.15;31.98;;;1.60;99.90;;;;;;4972562;28;20026;-50
2023/03/04 06:58:34;;;;;;;75.65;33.78;;;1.60;99.90;;;;;;4973259;28;20172;-48
2023/03/04 07:01:29;;;;;;;68.68;32.13;;;1.60;99.90;;;;;;4973009;28;20039;-51
2023/03/04 07:03:55;;;;;;;62.85;29.42;;;1.70;99.90;;;;;;4964331;28;20034;-49
2023/03/04 07:06:24;;;;;;;70.38;29.45;;;1.70;99.90;;;;;;4972092;28;20031;-49
2023/03/04 07:08:50;;;;;;;67.28;30.92;;;1.60;99.90;;;;;;4973520;28;20038;-52
2023/03/04 07:11:17;;;;;;;68.53;31.08;;;1.60;99.90;;;;;;4973267;28;20030;-52
2023/03/04 07:13:42;;;;;;;69.88;32.65;;;1.60;99.90;;;;;;4972814;28;20048;-49
2023/03/04 07:16:10;;;;;;;74.43;32.67;;;1.60;99.90;;;;;;4972817;28;20542;-51
2023/03/04 07:18:36;;;;;;;65.13;30.55;;;1.70;99.90;;;;;;4972688;28;20035;-50
2023/03/04 07:21:02;;;;;;;69.82;31.50;;;1.70;99.90;;;;;;4974475;28;20027;-52
2023/03/04 07:23:28;;;;;;;69.95;31.73;;;1.70;99.90;;;;;;4973108;28;20027;-52
2023/03/04 07:25:53;;;;;;;78.15;31.13;;;1.70;99.90;;;;;;4973755;28;20023;-47
2023/03/04 07:28:19;;;;;;;73.28;33.00;;;1.70;99.90;;;;;;4975417;28;20491;-49
2023/03/04 07:30:44;;;;;;;71.22;31.02;;;1.70;99.90;;;;;;4976050;28;20035;-51
2023/03/04 07:33:10;;;;;;;72.68;31.25;;;1.80;99.90;;;;;;4972799;28;20438;-50
2023/03/04 07:35:35;;;;;;;73.28;31.92;;;1.80;99.90;;;;;;4972372;28;20414;-48
2023/03/04 07:38:01;;;;;;;64.35;31.17;;;1.90;99.90;;;;;;4970948;28;20402;-48
2023/03/04 07:40:26;;;;;;;70.65;32.72;;;1.90;99.90;;;;;;4973445;28;20505;-55
2023/03/04 07:42:53;;;;;;;69.43;30.17;;;1.90;99.90;;;;;;4976348;28;20062;-53
2023/03/04 07:45:20;;;;;;;79.28;33.40;;;1.90;99.90;;;;;;4975915;28;20039;-49
2023/03/04 07:47:45;;;;;;;80.22;31.70;;;1.90;99.90;;;;;;4976591;28;20487;-50
2023/03/04 07:50:11;;;;;;;68.57;32.22;;;2.00;99.90;;;;;;4976092;28;20038;-53
2023/03/04 07:52:41;;;;;;;62.33;29.70;;;2.00;99.90;;;;;;4974750;28;20034;-52
2023/03/04 07:55:08;;;;;;;74.22;30.17;;;2.00;99.90;;;;;;4975841;28;20031;-51
2023/03/04 07:57:33;;;;;;;68.70;30.75;;;2.00;99.90;;;;;;4975804;28;20490;-49
2023/03/04 07:59:59;;;;;;;77.05;31.70;;;2.00;99.90;;;;;;4976028;28;20026;-51
2023/03/04 08:02:24;;;;;;;73.18;31.95;;;2.00;99.90;;;;;;4975780;28;20026;-49
2023/03/04 08:04:50;;;;;;;67.28;30.88;;;2.10;99.90;;;;;;4974258;28;20421;-53
2023/03/04 08:07:15;;;;;;;66.40;30.77;;;2.20;99.90;;;;;;4975746;28;20050;-53
2023/03/04 08:09:41;;;;;;;62.58;30.02;;;2.30;99.90;;;;;;4975864;28;20162;-50
2023/03/04 08:12:07;;;;;;;63.92;28.88;;;2.30;99.90;;;;;;4975803;28;20019;-50
2023/03/04 08:14:33;;;;;;;68.05;31.58;;;2.30;99.90;;;;;;4974542;28;20027;-51
2023/03/04 08:16:59;;;;;;;66.68;31.38;;;2.40;99.90;;;;;;4974908;28;20090;-53
2023/03/04 08:19:24;;;;;;;69.78;32.22;;;2.40;99.90;;;;;;4968811;28;20439;-51
2023/03/04 08:21:50;;;;;;;69.20;30.67;;;2.50;99.90;;;;;;4958062;28;20484;-51
2023/03/04 08:24:15;;;;;;;67.00;31.15;;;2.60;99.90;;;;;;4959391;28;20542;-50
2023/03/04 08:26:45;;;;;;;70.35;30.27;;;2.70;99.90;;;;;;4974761;28;20026;-50
2023/03/04 08:29:14;;;;;;;68.75;29.85;;;2.70;99.90;;;;;;4973726;28;20030;-51
2023/03/04 08:31:40;;;;;;;69.47;31.38;;;2.70;99.90;;;;;;4974451;28;20023;-48
2023/03/04 08:34:08;;;;;;;67.53;32.28;;;2.80;99.90;;;;;;4974430;28;20022;-50
2023/03/04 08:36:34;;;;;;;62.45;30.92;;;2.80;99.90;;;;;;4973677;28;20457;-51
2023/03/04 08:38:59;;;;;;;66.78;30.75;;;2.90;99.90;;;;;;4973725;28;20057;-52
2023/03/04 08:41:26;;;;;;;63.45;30.02;;;2.90;99.90;;;;;;4973701;28;20439;-49
2023/03/04 08:43:52;;;;;;;63.88;30.38;;;2.90;99.90;;;;;;4974504;28;20423;-53
2023/03/04 08:46:18;;;;;;;69.82;31.50;;;2.90;99.90;;;;;;4973344;28;20133;-50
2023/03/04 08:48:43;;;;;;;70.43;34.08;;;2.90;99.90;;;;;;4974989;28;20066;-55
2023/03/04 08:51:12;;;;;;;62.20;30.88;;;2.90;99.90;;;;;;4974657;28;20031;-54
2023/03/04 08:53:38;;;;;;;67.07;30.17;;;2.90;99.90;;;;;;4974904;28;20031;-50
2023/03/04 08:56:05;;;;;;;68.68;32.00;;;2.90;99.90;;;;;;4974734;28;20373;-52
2023/03/04 08:58:30;;;;;;;66.80;30.65;;;2.90;99.90;;;;;;4974782;28;20495;-50
2023/03/04 09:00:58;;;;;;;62.22;31.23;;;2.90;99.90;;;;;;4974950;28;20023;-49
2023/03/04 09:03:24;;;;;;;59.75;29.90;;;3.00;99.90;;;;;;4974935;28;20018;-52
2023/03/04 09:05:50;;;;;;;63.88;29.67;;;3.10;99.90;;;;;;4974594;28;20026;-54
2023/03/04 09:08:16;;;;;;;58.67;29.00;;;3.20;99.90;;;;;;4974796;28;20051;-54
2023/03/04 09:10:42;;;;;;;61.03;29.45;;;3.30;99.90;;;;;;4974644;28;20426;-53
2023/03/04 09:13:10;;;;;;;64.38;32.00;;;3.50;99.90;;;;;;4974844;28;20033;-56
2023/03/04 09:15:36;;;;;;;58.47;29.52;;;3.50;99.90;;;;;;4974537;28;20114;-54
2023/03/04 09:18:03;;;;;;;65.15;31.30;;;3.40;99.90;;;;;;4974537;28;20102;-59
2023/03/04 09:20:30;;;;;;;61.25;29.65;;;3.50;99.90;;;;;;4974492;28;20042;-55
2023/03/04 09:22:56;;;;;;;64.35;30.73;;;3.40;99.90;;;;;;4974297;28;20023;-54
2023/03/04 09:25:21;;;;;;;57.58;30.63;;;3.50;99.90;;;;;;4972822;28;20027;-55
2023/03/04 09:27:47;;;;;;;70.20;32.33;;;3.60;99.90;;;;;;4974336;28;20073;-57
2023/03/04 09:30:13;;;;;;;68.85;32.67;;;3.60;99.90;;;;;;4974387;28;20026;-56
2023/03/04 09:32:40;;;;;;;66.68;31.75;;;3.70;99.90;;;;;;4974300;28;20029;-57
2023/03/04 09:35:06;;;;;;;63.03;30.90;;;3.80;99.90;;;;;;4973474;28;20441;-54
2023/03/04 09:37:32;;;;;;;75.95;31.55;;;3.80;99.90;;;;;;4972214;28;20093;-52
2023/03/04 09:39:58;;;;;;;53.97;27.83;;;3.90;99.90;;;;;;4973235;28;20018;-55
2023/03/04 09:42:31;;;;;;;62.38;31.33;;;3.90;99.90;;;;;;4973155;28;20031;-55
2023/03/04 09:44:57;;;;;;;70.60;31.40;;;4.00;99.90;;;;;;4972952;28;20062;-51
2023/03/04 09:47:24;;;;;;;56.90;28.58;;;4.10;99.90;;;;;;4973937;28;20031;-53
2023/03/04 09:50:03;;;;;;;56.72;28.67;;;4.20;99.90;;;;;;4973852;28;20127;-54
2023/03/04 09:52:52;;;;;;;58.00;28.13;;;4.20;99.90;;;;;;4973966;28;20050;-54
2023/03/04 09:55:45;;;;;;;65.63;30.67;;;4.30;99.90;;;;;;4974051;28;20505;-52
2023/03/04 09:58:29;;;;;;;60.15;29.27;;;4.40;99.90;;;;;;4968840;28;20043;-55
2023/03/04 10:01:17;;;;;;;61.53;29.65;;;4.40;99.90;;;;;;4968954;28;20061;-55
2023/03/04 10:03:47;;;;;;;64.68;30.35;;;4.50;99.90;;;;;;4963943;28;20026;-51
2023/03/04 10:06:17;;;;;;;57.67;29.50;;;4.60;99.90;;;;;;4973456;28;20395;-55
2023/03/04 10:09:05;;;;;;;56.30;29.35;;;4.60;99.90;;;;;;4972392;28;20026;-55
2023/03/04 10:11:48;;;;;;;58.92;26.55;;;4.60;99.90;;;;;;4972994;28;20447;-56
2023/03/04 10:14:22;;;;;;;53.03;26.73;;;4.60;99.90;;;;;;4973353;28;20513;-50
2023/03/04 10:16:56;;;;;;;61.58;29.30;;;4.60;99.90;;;;;;4973309;28;20031;-56
2023/03/04 10:19:40;;;;;;;49.50;24.55;;;4.70;99.90;;;;;;4973636;28;20106;-54
2023/03/04 10:22:34;;;;;;;49.65;26.30;;;4.90;99.90;;;;;;4973228;28;20019;-54
2023/03/04 10:25:15;;;;;;;55.83;27.30;;;4.90;99.90;;;;;;4969618;28;20030;-55
2023/03/04 10:27:49;;;;;;;54.00;25.65;;;4.90;99.90;;;;;;4972947;28;20035;-59
2023/03/04 10:30:41;;;;;;;55.47;27.00;;;4.90;99.90;;;;;;4973163;28;20376;-55
2023/03/04 10:33:22;;;;;;;52.10;25.38;;;5.00;99.90;;;;;;4973314;28;20019;-59
2023/03/04 10:35:53;;;;;;;55.08;25.88;;;4.90;99.90;;;;;;4973221;28;20026;-55
2023/03/04 10:38:21;;;;;;;50.33;25.35;;;5.00;99.90;;;;;;4972705;28;20027;-51
2023/03/04 10:40:46;;;;;;;48.45;24.33;;;4.90;99.90;;;;;;4973198;28;20019;-55
2023/03/04 10:43:20;;;;;;;47.85;25.42;;;4.90;99.90;;;;;;4973159;28;20029;-53
2023/03/04 10:45:47;;;;;;;55.03;24.40;;;4.90;99.90;;;;;;4973418;28;20366;-57
2023/03/04 10:48:28;;;;;;;48.88;24.73;;;5.00;99.90;;;;;;4973404;28;20025;-58
2023/03/04 10:51:09;;;;;;;44.47;23.80;;;5.00;99.90;;;;;;4973129;28;20038;-55
2023/03/04 10:53:40;;;;;;;48.78;22.75;;;5.00;99.90;;;;;;4972855;28;20118;-58
2023/03/04 10:56:31;;;;;;;50.42;22.85;;;5.10;99.90;;;;;;4973250;28;20058;-56
2023/03/04 10:59:24;;;;;;;48.33;22.90;;;5.10;99.90;;;;;;4973012;28;20023;-55
2023/03/04 11:01:52;;;;;;;43.33;23.23;;;5.10;99.90;;;;;;4972648;28;20493;-52
2023/03/04 11:04:18;;;;;;;44.13;21.63;;;5.10;99.90;;;;;;4972879;28;20030;-56
2023/03/04 11:06:43;;;;;;;43.50;20.77;;;5.20;99.90;;;;;;4972212;28;20023;-57
2023/03/04 11:09:22;;;;;;;48.53;22.88;;;5.10;99.90;;;;;;4972941;28;20118;-52
2023/03/04 11:11:49;;;;;;;47.13;21.85;;;5.20;99.90;;;;;;4964032;28;20028;-55
2023/03/04 11:14:38;;;;;;;40.20;20.73;;;5.30;99.90;;;;;;4953345;28;20027;-55
2023/03/04 11:17:17;;;;;;;43.92;21.50;;;5.20;99.90;;;;;;4970132;28;20407;-54
2023/03/04 11:19:46;;;;;;;44.28;20.85;;;5.30;99.90;;;;;;4972797;28;20296;-54
2023/03/04 11:22:17;;;;;;;36.35;20.50;;;5.40;99.90;;;;;;4972554;28;20026;-56
2023/03/04 11:24:43;;;;;;;39.08;20.77;;;5.30;99.90;;;;;;4970798;28;20534;-55
2023/03/04 11:27:19;;;;;;;34.83;18.85;;;5.30;99.90;;;;;;4972264;28;20117;-56
2023/03/04 11:29:59;;;;;;;39.38;18.15;;;5.30;99.90;;;;;;4972695;28;20479;-56
2023/03/04 11:32:33;;;;;;;38.22;19.77;;;5.30;99.90;;;;;;4972764;28;20113;-53
2023/03/04 11:35:27;;;;;;;38.85;19.70;;;5.30;99.90;;;;;;4969092;28;20487;-57
2023/03/04 11:38:15;;;;;;;34.67;19.10;;;5.40;99.90;;;;;;4966297;28;20058;-53
2023/03/04 11:40:44;;;;;;;41.42;20.73;;;5.40;99.90;;;;;;4972139;28;20060;-53
2023/03/04 11:43:16;;;;;;;42.85;20.60;;;5.40;99.90;;;;;;4970507;28;20465;-56
2023/03/04 11:46:10;;;;;;;40.92;17.95;;;5.40;99.90;;;;;;4972616;28;20070;-56
2023/03/04 11:49:11;;;;;;;35.47;16.88;;;5.40;99.90;;;;;;4972702;28;20027;-52
2023/03/04 11:51:52;;;;;;;30.17;15.25;;;5.50;99.90;;;;;;4972658;28;20034;-52
2023/03/04 11:54:45;;;;;;;36.40;16.20;;;5.50;99.90;;;;;;4971608;28;20027;-53
2023/03/04 11:57:33;;;;;;;26.67;11.40;;;5.70;99.90;;;;;;4970578;28;20045;-56
2023/03/04 12:00:18;;;;;;;19.60;9.02;;;5.80;99.90;;;;;;4965132;28;20019;-54
2023/03/04 12:03:03;;;;;;;15.38;6.65;;;5.90;99.90;;;;;;4969247;28;20026;-52
2023/03/04 12:05:32;;;;;;;21.05;7.28;;;6.00;99.90;;;;;;4970458;28;20093;-53
2023/03/04 12:08:21;;;;;;;23.45;7.95;;;6.00;99.90;;;;;;4970810;28;20027;-51
2023/03/04 12:11:11;;;;;;;17.95;7.00;;;6.10;99.90;;;;;;4972129;28;20030;-50
2023/03/04 12:14:03;;;;;;;17.08;8.05;;;6.10;99.90;;;;;;4970768;28;20034;-51
2023/03/04 12:16:46;;;;;;;14.85;7.32;;;6.10;99.90;;;;;;4972183;28;20066;-53
2023/03/04 12:19:18;;;;;;;16.58;6.28;;;6.10;99.90;;;;;;4972424;28;20402;-52
2023/03/04 12:22:05;;;;;;;18.35;7.50;;;6.10;99.90;;;;;;4972285;28;20019;-54
2023/03/04 12:24:41;;;;;;;16.88;7.68;;;6.10;99.90;;;;;;4953228;28;20099;-49
2023/03/04 12:27:49;;;;;;;19.42;7.85;;;6.20;99.90;;;;;;4954936;28;20050;-55
2023/03/04 12:30:29;;;;;;;19.20;7.97;;;6.20;99.90;;;;;;4928700;28;20417;-54
2023/03/04 12:33:20;;;;;;;20.40;9.57;;;6.20;99.90;;;;;;4963627;28;20026;-53
2023/03/04 12:36:06;;;;;;;49.10;23.92;;;6.20;99.90;;;;;;4975489;28;20040;-56
2023/03/04 12:38:52;;;;;;;;;;;6.20;99.90;;;;;;4974390;28;20228;-56
2023/03/04 12:41:45;;;;;;;21.95;9.23;;;6.20;99.90;;;;;;4975266;28;19917;-55
2023/03/04 12:44:19;;;;;;;21.48;6.82;;;6.30;99.90;;;;;;4997810;23;20033;-52
2023/03/04 12:47:05;;;;;;;21.00;6.35;;;6.40;99.90;;;;;;4971429;28;20041;-51
2023/03/04 12:49:46;;;;;;;9.25;4.75;;;6.50;99.90;;;;;;4975499;28;20065;-48